createdAt,value
2022-08-08T00:02:31.170Z,77.09
2022-08-08T00:07:46.788Z,76.82
2022-08-08T00:12:57.098Z,77.14
2022-08-08T00:18:09.673Z,77.80
2022-08-08T00:23:23.290Z,81.56
2022-08-08T00:28:40.268Z,82.00
2022-08-08T00:34:20.007Z,84.20
2022-08-08T00:41:12.383Z,86.72
2022-08-08T00:45:32.550Z,91.47
2022-08-08T00:51:07.900Z,91.17
2022-08-08T00:56:52.243Z,92.60
2022-08-08T01:03:59.822Z,92.41
2022-08-08T01:07:57.292Z,96.26
2022-08-08T01:13:52.940Z,99.29
2022-08-08T01:19:52.179Z,100.00
2022-08-08T01:25:40.994Z,98.84
2022-08-08T01:32:05.754Z,100.00
2022-08-08T01:37:56.413Z,100.00
2022-08-08T01:43:08.239Z,100.00
2022-08-08T01:48:30.666Z,100.00
2022-08-08T01:55:16.480Z,100.00
2022-08-08T02:00:01.714Z,100.00
2022-08-08T02:05:55.513Z,100.00
2022-08-08T02:11:08.257Z,100.00
2022-08-08T02:16:38.593Z,100.00
2022-08-08T02:22:06.812Z,100.00
2022-08-08T02:27:20.808Z,100.00
2022-08-08T02:32:50.115Z,100.00
2022-08-08T02:38:30.121Z,100.00
2022-08-08T02:44:39.101Z,100.00
2022-08-08T02:50:17.665Z,100.00
2022-08-08T02:56:10.785Z,100.00
2022-08-08T03:02:02.855Z,100.00
2022-08-08T03:07:58.432Z,100.00
2022-08-08T03:16:04.029Z,100.00
2022-08-08T03:19:34.543Z,100.00
2022-08-08T03:24:46.578Z,100.00
2022-08-08T03:30:02.176Z,100.00
2022-08-08T03:35:10.582Z,100.00
2022-08-08T03:40:29.707Z,100.00
2022-08-08T03:46:07.018Z,100.00
2022-08-08T03:51:09.945Z,100.00
2022-08-08T03:56:31.753Z,100.00
2022-08-08T04:02:22.927Z,100.00
2022-08-08T04:07:04.173Z,100.00
2022-08-08T04:12:16.688Z,100.00
2022-08-08T04:17:45.812Z,100.00
2022-08-08T04:22:51.366Z,100.00
2022-08-08T04:28:35.217Z,100.00
2022-08-08T04:33:27.047Z,100.00
2022-08-08T04:38:32.539Z,100.00
2022-08-08T04:43:45.395Z,100.00
2022-08-08T04:48:57.300Z,100.00
2022-08-08T04:54:40.110Z,100.00
2022-08-08T04:59:31.681Z,100.00
2022-08-08T05:04:48.267Z,100.00
2022-08-08T05:09:54.299Z,100.00
2022-08-08T05:15:05.212Z,100.00
2022-08-08T05:20:15.093Z,100.00
2022-08-08T05:25:21.691Z,100.00
2022-08-08T05:30:29.886Z,100.00
2022-08-08T05:35:39.708Z,100.00
2022-08-08T05:40:50.652Z,100.00
2022-08-08T05:46:04.294Z,100.00
2022-08-08T05:51:16.334Z,100.00
2022-08-08T05:56:27.934Z,100.00
2022-08-08T06:01:55.952Z,100.00
2022-08-08T06:07:04.474Z,100.00
2022-08-08T06:12:14.274Z,100.00
2022-08-08T06:17:50.144Z,100.00
2022-08-08T06:22:52.533Z,100.00
2022-08-08T06:28:07.873Z,100.00
2022-08-08T06:33:18.266Z,100.00
2022-08-08T06:38:49.155Z,100.00
2022-08-08T06:44:00.722Z,100.00
2022-08-08T06:49:14.329Z,100.00
2022-08-08T06:54:20.459Z,100.00
2022-08-08T06:59:25.759Z,100.00
2022-08-08T07:04:52.113Z,100.00
2022-08-08T07:10:08.189Z,100.00
2022-08-08T07:15:32.050Z,100.00
2022-08-08T07:20:51.787Z,100.00
2022-08-08T07:26:03.434Z,100.00
2022-08-08T07:31:10.159Z,100.00
2022-08-08T07:36:20.026Z,100.00
2022-08-08T07:41:28.342Z,100.00
2022-08-08T07:46:53.854Z,94.89
2022-08-08T07:52:03.479Z,93.29
2022-08-08T07:57:21.803Z,92.33
2022-08-08T08:02:41.635Z,90.59
2022-08-08T08:07:57.253Z,85.58
2022-08-08T08:13:42.749Z,88.84
2022-08-08T08:19:00.367Z,82.30
2022-08-08T08:24:13.902Z,77.85
2022-08-08T08:29:21.657Z,73.50
2022-08-08T08:34:32.796Z,72.53
2022-08-08T08:40:00.938Z,63.48
2022-08-08T08:45:22.718Z,62.71
2022-08-08T08:50:41.248Z,60.72
2022-08-08T08:55:53.903Z,59.52
2022-08-08T09:01:09.259Z,57.23
2022-08-08T09:06:26.331Z,56.02
2022-08-08T09:11:47.791Z,56.00
2022-08-08T09:17:11.553Z,53.13
2022-08-08T09:22:26.774Z,52.48
2022-08-08T09:27:55.787Z,51.83
2022-08-08T09:33:54.124Z,51.22
2022-08-08T09:38:51.960Z,49.27
2022-08-08T09:44:15.441Z,44.41
2022-08-08T09:49:42.556Z,46.30
2022-08-08T09:54:53.156Z,45.74
2022-08-08T10:05:31.112Z,43.82
2022-08-08T10:10:41.665Z,44.18
2022-08-08T10:16:01.119Z,43.13
2022-08-08T10:21:25.106Z,43.22
2022-08-08T10:26:57.071Z,43.73
2022-08-08T10:32:16.438Z,40.64
2022-08-08T10:37:30.343Z,41.80
2022-08-08T10:42:39.238Z,41.55
2022-08-08T10:47:56.752Z,40.55
2022-08-08T10:53:12.755Z,39.88
2022-08-08T10:58:18.067Z,39.34
2022-08-08T11:03:52.374Z,40.64
2022-08-08T11:09:09.564Z,40.32
2022-08-08T11:14:25.309Z,41.18
2022-08-08T11:19:38.626Z,39.59
2022-08-08T11:24:45.747Z,39.83
2022-08-08T11:30:20.585Z,39.73
2022-08-08T11:35:29.379Z,39.08
2022-08-08T11:40:48.482Z,38.41
2022-08-08T11:46:13.973Z,38.77
2022-08-08T11:51:30.239Z,37.86
2022-08-08T11:56:44.335Z,38.56
2022-08-08T12:02:30.999Z,38.62
2022-08-08T12:07:49.673Z,38.09
2022-08-08T12:13:05.993Z,37.51
2022-08-08T12:18:21.710Z,37.13
2022-08-08T12:23:42.955Z,37.10
2022-08-08T12:29:02.859Z,36.90
2022-08-08T12:34:09.192Z,37.19
2022-08-08T12:39:17.016Z,37.36
2022-08-08T12:44:32.567Z,36.73
2022-08-08T13:35:24.849Z,34.04
2022-08-08T13:41:00.517Z,33.92
2022-08-08T13:52:37.681Z,33.47
2022-08-08T13:58:07.625Z,33.25
2022-08-08T14:03:52.997Z,32.08
2022-08-08T14:09:24.755Z,32.48
2022-08-08T14:15:03.151Z,30.88
2022-08-08T14:20:38.937Z,31.46
2022-08-08T14:25:54.007Z,29.76
2022-08-08T14:31:20.409Z,30.82
2022-08-08T14:36:53.621Z,29.97
2022-08-08T14:42:17.075Z,30.55
2022-08-08T14:47:37.880Z,29.72
2022-08-08T14:53:10.203Z,30.16
2022-08-08T14:58:30.497Z,30.14
2022-08-08T15:03:53.683Z,29.92
2022-08-08T15:09:24.906Z,29.55
2022-08-08T15:14:43.295Z,29.56
2022-08-08T15:20:02.163Z,29.23
2022-08-08T15:25:18.068Z,29.29
2022-08-08T15:30:37.078Z,29.44
2022-08-08T15:35:48.434Z,29.09
2022-08-08T15:41:02.552Z,29.37
2022-08-08T15:46:18.273Z,29.67
2022-08-08T15:51:36.627Z,28.96
2022-08-08T15:56:48.365Z,28.95
2022-08-08T16:02:00.657Z,28.67
2022-08-08T16:07:15.958Z,28.94
2022-08-08T16:13:05.465Z,29.19
2022-08-08T16:18:06.608Z,28.94
2022-08-08T16:23:32.941Z,28.95
2022-08-08T16:28:57.151Z,29.91
2022-08-08T16:34:09.548Z,29.30
2022-08-08T16:40:00.958Z,29.25
2022-08-08T16:45:11.404Z,29.25
2022-08-08T16:50:31.084Z,29.95
2022-08-08T16:56:00.421Z,30.53
2022-08-08T17:01:16.785Z,30.30
2022-08-08T17:06:36.258Z,29.91
2022-08-08T17:11:56.682Z,29.56
2022-08-08T17:17:41.372Z,29.90
2022-08-08T17:28:34.299Z,30.33
2022-08-08T17:34:37.499Z,30.88
2022-08-08T17:39:45.828Z,31.04
2022-08-08T17:44:51.146Z,30.93
2022-08-08T17:50:04.142Z,31.13
2022-08-08T17:56:05.190Z,31.60
2022-08-08T18:00:59.917Z,32.02
2022-08-08T18:06:19.910Z,32.31
2022-08-08T18:11:37.064Z,32.80
2022-08-08T18:16:57.380Z,33.13
2022-08-08T18:22:37.504Z,33.86
2022-08-08T18:27:47.991Z,34.47
2022-08-08T18:32:58.506Z,34.89
2022-08-08T18:38:29.621Z,35.76
2022-08-08T18:43:43.346Z,36.60
2022-08-08T18:48:54.283Z,36.61
2022-08-08T18:54:21.839Z,37.31
2022-08-08T18:59:40.873Z,37.75
2022-08-08T19:04:48.991Z,38.14
2022-08-08T19:10:14.152Z,38.62
2022-08-08T19:15:33.717Z,38.91
2022-08-08T19:20:55.902Z,39.44
2022-08-08T19:26:29.489Z,41.56
2022-08-08T19:31:50.546Z,40.88
2022-08-08T19:43:04.348Z,41.56
2022-08-08T19:48:28.898Z,41.95
2022-08-08T19:53:53.204Z,42.13
2022-08-08T19:59:01.047Z,42.20
2022-08-08T20:04:26.792Z,42.97
2022-08-08T20:09:45.047Z,43.30
2022-08-08T20:16:00.509Z,43.93
2022-08-08T20:21:14.422Z,44.69
2022-08-08T20:26:27.548Z,44.78
2022-08-08T20:32:02.677Z,44.89
2022-08-08T20:37:13.310Z,45.23
2022-08-08T20:42:28.986Z,46.72
2022-08-08T20:47:46.025Z,46.52
2022-08-08T20:53:33.319Z,46.58
2022-08-08T20:58:47.588Z,47.04
2022-08-08T21:03:55.643Z,47.16
2022-08-08T21:09:05.788Z,47.30
2022-08-08T21:14:13.688Z,47.66
2022-08-08T21:19:19.680Z,48.01
2022-08-08T21:24:32.867Z,48.73
2022-08-08T21:30:03.809Z,48.76
2022-08-08T21:36:17.625Z,50.31
2022-08-08T21:40:32.967Z,49.97
2022-08-08T21:47:59.398Z,50.88
2022-08-08T21:51:10.226Z,51.69
2022-08-08T21:56:29.514Z,53.29
2022-08-08T22:01:51.937Z,54.07
2022-08-08T22:07:03.018Z,54.82
2022-08-08T22:12:09.812Z,55.30
2022-08-08T22:17:19.230Z,57.10
2022-08-08T22:22:28.646Z,58.29
2022-08-08T22:28:00.570Z,61.51
2022-08-08T22:33:02.309Z,63.24
2022-08-08T22:38:14.395Z,62.81
2022-08-08T22:43:23.242Z,64.08
2022-08-08T22:48:30.958Z,65.02
2022-08-08T22:54:31.288Z,67.06
2022-08-08T22:59:01.061Z,67.78
2022-08-08T23:04:12.658Z,69.42
2022-08-08T23:09:17.664Z,69.86
2022-08-08T23:14:25.605Z,73.11
2022-08-08T23:19:33.442Z,74.37
2022-08-08T23:24:41.457Z,75.69
2022-08-08T23:29:55.221Z,77.98
2022-08-08T23:35:08.064Z,83.70
2022-08-08T23:40:22.195Z,83.82
2022-08-08T23:49:05.627Z,84.48
2022-08-08T23:50:57.049Z,85.48
2022-08-08T23:56:02.566Z,86.51
